createdAt,value
2023-04-21T00:01:20.491Z,16.38
2023-04-21T00:02:52.705Z,15.75
2023-04-21T00:04:25.457Z,10.75
2023-04-21T00:06:00.647Z,12.98
2023-04-21T00:07:34.500Z,11.02
2023-04-21T00:09:06.559Z,10.55
2023-04-21T00:10:38.725Z,11.20
2023-04-21T00:12:10.836Z,9.95
2023-04-21T00:13:43.103Z,10.98
2023-04-21T00:15:15.100Z,11.52
2023-04-21T00:16:47.676Z,10.73
2023-04-21T00:18:19.714Z,10.07
2023-04-21T00:19:52.261Z,10.35
2023-04-21T00:21:24.395Z,10.13
2023-04-21T00:22:57.236Z,11.32
2023-04-21T00:24:29.352Z,13.30
2023-04-21T00:26:03.221Z,10.93
2023-04-21T00:27:35.392Z,10.00
2023-04-21T00:29:07.511Z,11.40
2023-04-21T00:30:39.622Z,9.98
2023-04-21T00:32:11.914Z,9.93
2023-04-21T00:33:44.009Z,8.98
2023-04-21T00:35:16.120Z,9.95
2023-04-21T00:36:48.322Z,11.23
2023-04-21T00:38:20.583Z,11.70
2023-04-21T00:39:52.714Z,9.60
2023-04-21T00:41:24.811Z,10.45
2023-04-21T00:42:56.950Z,12.05
2023-04-21T00:44:29.018Z,9.98
2023-04-21T00:46:01.175Z,9.48
2023-04-21T00:47:33.540Z,10.15
2023-04-21T00:49:07.581Z,10.98
2023-04-21T00:50:39.640Z,9.43
2023-04-21T00:52:12.189Z,10.52
2023-04-21T00:53:44.718Z,11.20
2023-04-21T00:55:17.284Z,9.70
2023-04-21T00:56:49.755Z,10.07
2023-04-21T00:58:21.922Z,10.35
2023-04-21T00:59:53.991Z,9.93
2023-04-21T01:01:26.438Z,11.85
2023-04-21T01:03:00.659Z,10.98
2023-04-21T01:04:37.421Z,12.43
2023-04-21T01:06:10.088Z,11.13
2023-04-21T01:07:42.232Z,9.68
2023-04-21T01:09:14.387Z,11.88
2023-04-21T01:10:46.502Z,10.88
2023-04-21T01:12:18.569Z,9.25
2023-04-21T01:13:54.285Z,9.77
2023-04-21T01:15:27.859Z,10.73
2023-04-21T01:17:00.382Z,8.75
2023-04-21T01:18:32.652Z,11.32
2023-04-21T01:20:09.405Z,10.20
2023-04-21T01:21:42.076Z,10.68
2023-04-21T01:23:14.205Z,10.55
2023-04-21T01:24:48.209Z,10.73
2023-04-21T01:26:21.977Z,10.13
2023-04-21T01:27:54.116Z,11.15
2023-04-21T01:29:26.343Z,9.88
2023-04-21T01:30:58.494Z,8.57
2023-04-21T01:32:30.932Z,9.07
2023-04-21T01:34:06.331Z,9.43
2023-04-21T01:35:38.428Z,10.02
2023-04-21T01:37:17.904Z,9.00
2023-04-21T01:38:49.974Z,9.18
2023-04-21T01:40:22.092Z,10.32
2023-04-21T01:41:56.086Z,9.18
2023-04-21T01:43:28.206Z,9.55
2023-04-21T01:45:00.762Z,9.43
2023-04-21T01:46:32.868Z,9.10
2023-04-21T01:48:05.148Z,9.13
2023-04-21T01:49:37.250Z,8.60
2023-04-21T01:51:09.330Z,8.82
2023-04-21T01:52:42.033Z,9.73
2023-04-21T01:54:14.326Z,9.70
2023-04-21T01:55:46.403Z,9.95
2023-04-21T01:57:18.738Z,11.38
2023-04-21T01:58:50.972Z,9.15
2023-04-21T02:00:23.028Z,9.48
2023-04-21T02:01:55.160Z,9.15
2023-04-21T02:03:27.540Z,9.82
2023-04-21T02:04:59.670Z,9.32
2023-04-21T02:06:32.085Z,8.60
2023-04-21T02:08:04.275Z,8.52
2023-04-21T02:09:36.968Z,9.23
2023-04-21T02:11:09.052Z,8.93
2023-04-21T02:12:41.098Z,9.18
2023-04-21T02:14:13.201Z,9.38
2023-04-21T02:15:45.458Z,9.20
2023-04-21T02:17:18.209Z,10.15
2023-04-21T02:18:50.439Z,9.38
2023-04-21T02:20:22.552Z,8.95
2023-04-21T02:21:54.616Z,12.50
2023-04-21T02:23:26.707Z,9.18
2023-04-21T02:24:58.852Z,10.23
2023-04-21T02:26:31.103Z,9.65
2023-04-21T02:28:03.300Z,8.23
2023-04-21T02:29:35.361Z,10.45
2023-04-21T02:31:07.643Z,9.18
2023-04-21T02:32:43.305Z,11.45
2023-04-21T02:34:15.563Z,9.85
2023-04-21T02:35:47.672Z,10.15
2023-04-21T02:37:20.060Z,9.82
2023-04-21T02:38:52.433Z,10.48
2023-04-21T02:40:24.619Z,11.25
2023-04-21T02:41:57.207Z,8.77
2023-04-21T02:43:29.291Z,8.48
2023-04-21T02:45:01.460Z,9.05
2023-04-21T02:46:33.595Z,9.90
2023-04-21T02:48:06.016Z,8.80
2023-04-21T02:49:44.393Z,7.82
2023-04-21T02:51:16.580Z,9.55
2023-04-21T02:52:48.673Z,8.43
2023-04-21T02:54:20.769Z,9.43
2023-04-21T02:55:53.133Z,11.15
2023-04-21T02:57:25.207Z,12.27
2023-04-21T02:58:57.537Z,10.02
2023-04-21T03:00:29.688Z,8.57
2023-04-21T03:02:01.880Z,11.63
2023-04-21T03:03:34.281Z,9.52
2023-04-21T03:05:06.982Z,9.50
2023-04-21T03:06:39.061Z,12.00
2023-04-21T03:08:11.215Z,13.00
2023-04-21T03:09:43.388Z,10.68
2023-04-21T03:11:15.664Z,10.85
2023-04-21T03:12:50.497Z,12.43
2023-04-21T03:14:22.640Z,10.77
2023-04-21T03:15:54.742Z,17.63
2023-04-21T03:17:27.381Z,11.95
2023-04-21T03:18:59.486Z,10.98
2023-04-21T03:20:31.664Z,12.25
2023-04-21T03:22:04.484Z,17.60
2023-04-21T03:23:36.589Z,12.80
2023-04-21T03:25:08.833Z,12.63
2023-04-21T03:26:41.521Z,11.32
2023-04-21T03:28:14.098Z,11.05
2023-04-21T03:29:46.200Z,11.03
2023-04-21T03:31:18.350Z,16.92
2023-04-21T03:32:51.085Z,11.55
2023-04-21T03:34:23.287Z,12.80
2023-04-21T03:35:55.501Z,10.98
2023-04-21T03:37:27.838Z,13.65
2023-04-21T03:39:12.769Z,11.73
2023-04-21T03:40:52.209Z,10.32
2023-04-21T03:42:24.470Z,11.82
2023-04-21T03:43:56.540Z,10.75
2023-04-21T03:45:28.951Z,12.73
2023-04-21T03:47:01.210Z,13.95
2023-04-21T03:48:33.381Z,11.27
2023-04-21T03:50:06.339Z,12.40
2023-04-21T03:51:38.496Z,11.88
2023-04-21T03:53:10.732Z,11.38
2023-04-21T03:54:42.841Z,12.82
2023-04-21T03:56:14.978Z,13.20
2023-04-21T03:57:47.235Z,13.85
2023-04-21T03:59:19.471Z,14.38
2023-04-21T04:00:51.796Z,11.25
2023-04-21T04:02:24.061Z,11.85
2023-04-21T04:03:56.585Z,11.70
2023-04-21T04:05:29.028Z,12.57
2023-04-21T04:07:01.252Z,10.77
2023-04-21T04:08:33.375Z,15.10
2023-04-21T04:10:05.706Z,14.82
2023-04-21T04:11:37.837Z,15.40
2023-04-21T04:13:10.135Z,14.85
2023-04-21T04:14:42.273Z,16.05
2023-04-21T04:16:14.423Z,12.40
2023-04-21T04:17:46.637Z,13.93
2023-04-21T04:19:19.121Z,15.43
2023-04-21T04:20:51.497Z,13.35
2023-04-21T04:22:23.585Z,12.82
2023-04-21T04:23:56.088Z,15.05
2023-04-21T04:25:28.312Z,13.63
2023-04-21T04:27:02.660Z,19.25
2023-04-21T04:28:35.313Z,16.35
2023-04-21T04:30:08.233Z,22.20
2023-04-21T04:31:40.523Z,20.40
2023-04-21T04:33:12.774Z,32.55
2023-04-21T04:34:45.153Z,30.95
2023-04-21T04:36:17.280Z,35.25
2023-04-21T04:37:50.152Z,53.05
2023-04-21T04:39:23.107Z,37.60
2023-04-21T04:40:55.940Z,34.95
2023-04-21T04:42:28.030Z,35.17
2023-04-21T04:44:01.095Z,37.65
2023-04-21T04:45:33.565Z,33.33
2023-04-21T04:47:06.090Z,33.70
2023-04-21T04:48:38.411Z,33.13
2023-04-21T04:50:10.756Z,30.80
2023-04-21T04:51:42.963Z,31.20
2023-04-21T04:53:15.128Z,30.42
2023-04-21T04:54:47.236Z,28.02
2023-04-21T04:56:19.307Z,28.05
2023-04-21T04:57:52.155Z,21.27
2023-04-21T04:59:24.307Z,22.55
2023-04-21T05:00:56.466Z,15.48
2023-04-21T05:02:28.794Z,13.93
2023-04-21T05:04:01.183Z,12.75
2023-04-21T05:05:33.606Z,13.52
2023-04-21T05:07:08.078Z,13.38
2023-04-21T05:08:41.852Z,14.60
2023-04-21T05:10:14.192Z,14.88
2023-04-21T05:11:46.285Z,12.85
2023-04-21T05:13:18.721Z,15.52
2023-04-21T05:14:50.978Z,16.05
2023-04-21T05:16:23.215Z,14.13
2023-04-21T05:17:55.506Z,12.75
2023-04-21T05:19:27.677Z,11.65
2023-04-21T05:20:59.823Z,16.67
2023-04-21T05:22:31.985Z,13.48
2023-04-21T05:24:04.379Z,14.45
2023-04-21T05:25:38.929Z,13.98
2023-04-21T05:27:11.167Z,12.65
2023-04-21T05:28:43.353Z,13.55
2023-04-21T05:30:15.488Z,11.95
2023-04-21T05:31:47.635Z,15.05
2023-04-21T05:33:20.185Z,11.27
2023-04-21T05:34:52.633Z,11.97
2023-04-21T05:36:25.444Z,10.93
2023-04-21T05:37:57.590Z,11.90
2023-04-21T05:39:29.676Z,11.63
2023-04-21T05:41:01.825Z,15.45
2023-04-21T05:42:33.935Z,12.60
2023-04-21T05:44:06.213Z,13.13
2023-04-21T05:45:41.582Z,14.20
2023-04-21T05:47:13.851Z,11.68
2023-04-21T05:48:46.082Z,12.35
2023-04-21T05:50:18.237Z,10.70
2023-04-21T05:51:50.372Z,12.07
2023-04-21T05:53:24.080Z,14.50
2023-04-21T05:54:56.179Z,13.85
2023-04-21T05:56:28.293Z,13.35
2023-04-21T05:58:00.427Z,10.93
2023-04-21T05:59:32.561Z,15.13
2023-04-21T06:01:05.090Z,12.43
2023-04-21T06:02:37.582Z,13.60
2023-04-21T06:04:10.166Z,11.70
2023-04-21T06:05:42.595Z,10.23
2023-04-21T06:07:15.566Z,16.73
2023-04-21T06:08:48.983Z,11.45
2023-04-21T06:10:21.610Z,13.23
2023-04-21T06:11:53.818Z,12.85
2023-04-21T06:13:27.897Z,11.50
2023-04-21T06:15:00.330Z,11.13
2023-04-21T06:16:34.777Z,14.05
2023-04-21T06:18:07.185Z,12.82
2023-04-21T06:19:41.273Z,11.18
2023-04-21T06:21:14.081Z,12.63
2023-04-21T06:22:49.265Z,11.65
2023-04-21T06:24:25.786Z,11.77
2023-04-21T06:26:05.820Z,16.90
2023-04-21T06:27:38.026Z,12.95
2023-04-21T06:29:10.195Z,10.88
2023-04-21T06:30:42.566Z,12.25
2023-04-21T06:32:14.694Z,12.10
2023-04-21T06:33:46.871Z,11.52
2023-04-21T06:35:20.841Z,11.85
2023-04-21T06:36:53.603Z,15.50
2023-04-21T06:38:25.826Z,16.48
2023-04-21T06:39:57.962Z,12.63
2023-04-21T06:41:30.233Z,14.82
2023-04-21T06:43:02.413Z,13.48
2023-04-21T06:44:34.665Z,12.05
2023-04-21T06:46:06.898Z,12.43
2023-04-21T06:47:39.079Z,11.73
2023-04-21T06:49:11.567Z,13.23
2023-04-21T06:50:45.136Z,12.10
2023-04-21T06:53:52.145Z,10.88
2023-04-21T06:55:24.580Z,10.68
2023-04-21T06:56:57.675Z,12.05
2023-04-21T06:58:29.813Z,11.90
2023-04-21T07:00:01.914Z,13.27
2023-04-21T07:01:34.179Z,13.10
2023-04-21T07:03:07.027Z,12.18
2023-04-21T07:04:39.522Z,10.60
2023-04-21T07:06:11.693Z,10.40
2023-04-21T07:07:43.903Z,12.07
2023-04-21T07:09:16.050Z,11.63
2023-04-21T07:10:48.201Z,11.98
2023-04-21T07:12:20.336Z,10.80
2023-04-21T07:13:52.585Z,16.52
2023-04-21T07:15:24.742Z,17.00
2023-04-21T07:16:57.669Z,13.40
2023-04-21T07:18:29.880Z,13.18
2023-04-21T07:20:02.251Z,11.82
2023-04-21T07:21:36.585Z,14.57
2023-04-21T07:23:08.682Z,12.07
2023-04-21T07:24:40.965Z,12.43
2023-04-21T07:26:13.221Z,11.57
2023-04-21T07:27:45.368Z,10.90
2023-04-21T07:29:17.767Z,11.07
2023-04-21T07:30:50.354Z,11.48
2023-04-21T07:32:22.601Z,11.90
2023-04-21T07:33:54.824Z,9.95
2023-04-21T07:35:29.109Z,11.23
2023-04-21T07:37:01.266Z,10.57
2023-04-21T07:38:34.731Z,10.50
2023-04-21T07:40:11.565Z,10.27
2023-04-21T07:41:44.154Z,11.10
2023-04-21T07:43:16.372Z,12.53
2023-04-21T07:44:49.315Z,10.85
2023-04-21T07:46:23.315Z,11.23
2023-04-21T07:47:55.600Z,11.25
2023-04-21T07:49:27.903Z,10.13
2023-04-21T07:51:00.880Z,13.45
2023-04-21T07:52:33.110Z,13.40
2023-04-21T07:54:05.311Z,13.00
2023-04-21T07:55:37.763Z,9.52
2023-04-21T07:57:10.142Z,11.07
2023-04-21T07:58:42.335Z,10.05
2023-04-21T08:00:15.247Z,11.63
2023-04-21T08:01:47.469Z,12.10
2023-04-21T08:03:22.189Z,10.15
2023-04-21T08:04:56.251Z,10.10
2023-04-21T08:06:29.322Z,11.43
2023-04-21T08:08:01.687Z,13.10
2023-04-21T08:09:33.908Z,9.85
2023-04-21T08:11:06.184Z,11.00
2023-04-21T08:12:38.331Z,11.25
2023-04-21T08:14:12.293Z,9.63
2023-04-21T08:15:44.408Z,10.43
2023-04-21T08:17:16.763Z,10.38
2023-04-21T08:18:48.907Z,10.68
2023-04-21T08:20:21.021Z,10.48
2023-04-21T08:21:53.209Z,11.82
2023-04-21T08:23:25.428Z,11.13
2023-04-21T08:24:57.726Z,11.07
2023-04-21T08:26:30.774Z,10.80
2023-04-21T08:28:02.994Z,9.85
2023-04-21T08:29:35.212Z,11.02
2023-04-21T08:31:07.358Z,15.30
2023-04-21T08:32:39.539Z,17.75
2023-04-21T08:34:11.673Z,15.77
2023-04-21T08:35:54.941Z,13.00
2023-04-21T08:37:36.083Z,13.57
2023-04-21T08:39:08.250Z,10.77
2023-04-21T08:40:40.489Z,11.25
2023-04-21T08:42:19.490Z,10.18
2023-04-21T08:43:51.687Z,22.15
2023-04-21T08:45:23.938Z,11.05
2023-04-21T08:46:56.513Z,11.27
2023-04-21T08:48:30.297Z,12.27
2023-04-21T08:50:02.571Z,11.20
2023-04-21T08:51:35.296Z,12.77
2023-04-21T08:53:07.526Z,11.85
2023-04-21T08:54:39.808Z,10.65
2023-04-21T08:56:12.127Z,11.52
2023-04-21T08:57:44.247Z,13.25
2023-04-21T08:59:17.066Z,10.63
2023-04-21T09:00:50.073Z,12.40
2023-04-21T09:02:22.868Z,10.68
2023-04-21T09:03:55.321Z,12.73
2023-04-21T09:05:32.761Z,9.55
2023-04-21T09:07:05.108Z,9.95
2023-04-21T09:08:43.867Z,9.85
2023-04-21T09:10:16.234Z,9.88
2023-04-21T09:11:59.107Z,9.85
2023-04-21T09:13:33.262Z,9.30
2023-04-21T09:15:06.286Z,12.75
2023-04-21T09:16:38.550Z,10.27
2023-04-21T09:18:21.642Z,11.32
2023-04-21T09:19:54.368Z,10.13
2023-04-21T09:21:31.444Z,9.52
2023-04-21T09:23:07.783Z,10.68
2023-04-21T09:24:58.336Z,11.43
2023-04-21T09:26:32.264Z,9.88
2023-04-21T09:28:04.722Z,9.07
2023-04-21T09:29:36.913Z,11.73
2023-04-21T09:31:17.759Z,10.75
2023-04-21T09:32:50.496Z,12.60
2023-04-21T09:34:25.349Z,9.82
2023-04-21T09:36:01.730Z,12.48
2023-04-21T09:37:35.058Z,10.82
2023-04-21T09:40:42.873Z,13.30
2023-04-21T09:42:15.052Z,10.05
2023-04-21T09:43:47.221Z,11.27
2023-04-21T09:47:04.478Z,9.32
2023-04-21T09:48:37.248Z,11.98
2023-04-21T09:50:12.678Z,12.07
2023-04-21T09:52:06.048Z,10.88
2023-04-21T09:53:40.937Z,9.90
2023-04-21T09:55:13.724Z,10.88
2023-04-21T09:56:50.009Z,10.15
2023-04-21T09:58:25.167Z,10.57
2023-04-21T10:00:05.786Z,10.25
2023-04-21T10:01:39.533Z,10.20
2023-04-21T10:03:12.977Z,8.80
2023-04-21T10:04:45.728Z,10.45
2023-04-21T10:06:18.192Z,9.93
2023-04-21T10:07:51.142Z,10.35
2023-04-21T10:09:24.677Z,11.05
2023-04-21T10:12:29.159Z,10.52
2023-04-21T10:14:01.535Z,9.77
2023-04-21T10:15:40.182Z,9.82
2023-04-21T10:17:12.845Z,11.75
2023-04-21T10:18:46.298Z,12.40
2023-04-21T10:20:18.678Z,8.95
2023-04-21T10:21:51.353Z,8.88
2023-04-21T10:23:38.037Z,8.68
2023-04-21T10:25:10.684Z,8.77
2023-04-21T10:26:42.935Z,11.77
2023-04-21T10:28:19.005Z,13.25
2023-04-21T10:29:56.664Z,11.38
2023-04-21T10:31:48.102Z,9.27
2023-04-21T10:33:24.521Z,10.25
2023-04-21T10:34:57.752Z,10.85
2023-04-21T10:38:02.139Z,9.68
2023-04-21T10:39:44.752Z,10.52
2023-04-21T10:41:33.344Z,9.27
2023-04-21T10:43:05.996Z,9.52
2023-04-21T10:44:42.856Z,7.50
2023-04-21T10:46:37.054Z,9.35
2023-04-21T10:49:50.632Z,8.52
2023-04-21T10:51:23.333Z,8.73
2023-04-21T10:53:09.114Z,10.50
2023-04-21T10:54:47.495Z,8.43
2023-04-21T10:56:20.109Z,7.85
2023-04-21T10:57:52.254Z,8.50
2023-04-21T10:59:25.469Z,7.18
2023-04-21T11:00:59.604Z,9.38
2023-04-21T11:02:31.880Z,7.95
2023-04-21T11:04:04.865Z,8.30
2023-04-21T11:05:41.697Z,10.85
2023-04-21T11:07:18.945Z,10.10
2023-04-21T11:08:58.129Z,8.27
2023-04-21T11:10:30.370Z,8.80
2023-04-21T11:12:10.535Z,7.65
2023-04-21T11:13:42.642Z,7.95
2023-04-21T11:15:16.269Z,7.75
2023-04-21T11:16:48.485Z,8.45
2023-04-21T11:18:21.329Z,8.73
2023-04-21T11:19:55.073Z,9.30
2023-04-21T11:21:30.375Z,6.93
2023-04-21T11:23:02.478Z,8.13
2023-04-21T11:24:34.897Z,8.88
2023-04-21T11:26:06.975Z,10.57
2023-04-21T11:27:39.087Z,8.68
2023-04-21T11:29:12.607Z,7.97
2023-04-21T11:30:44.707Z,6.90
2023-04-21T11:32:17.469Z,7.68
2023-04-21T11:33:51.078Z,9.93
2023-04-21T11:35:23.802Z,8.43
2023-04-21T11:36:56.665Z,8.13
2023-04-21T11:38:43.068Z,10.23
2023-04-21T11:40:15.164Z,9.13
2023-04-21T11:41:48.849Z,8.75
2023-04-21T11:43:21.969Z,9.18
2023-04-21T11:44:57.979Z,11.15
2023-04-21T11:46:30.145Z,10.13
2023-04-21T11:48:16.060Z,7.90
2023-04-21T11:49:57.086Z,8.77
2023-04-21T11:51:37.707Z,8.88
2023-04-21T11:53:09.789Z,9.38
2023-04-21T11:54:41.948Z,7.78
2023-04-21T11:56:19.331Z,8.85
2023-04-21T11:57:54.247Z,7.85
2023-04-21T11:59:27.027Z,9.55
2023-04-21T12:00:59.195Z,8.68
2023-04-21T12:02:32.830Z,8.77
2023-04-21T12:04:05.407Z,9.93
2023-04-21T12:05:38.066Z,8.38
2023-04-21T12:07:10.363Z,8.45
2023-04-21T12:08:42.549Z,11.00
2023-04-21T12:10:19.331Z,9.02
2023-04-21T12:11:53.078Z,8.18
2023-04-21T12:13:27.637Z,8.30
2023-04-21T12:15:03.835Z,8.57
2023-04-21T12:16:37.952Z,9.43
2023-04-21T12:18:14.900Z,8.35
2023-04-21T12:19:47.488Z,8.38
2023-04-21T12:21:19.616Z,8.75
2023-04-21T12:22:52.782Z,8.50
2023-04-21T12:24:25.274Z,7.72
2023-04-21T12:25:58.092Z,8.10
2023-04-21T12:27:30.255Z,9.63
2023-04-21T12:29:02.504Z,8.65
2023-04-21T12:30:38.008Z,8.57
2023-04-21T12:32:12.159Z,9.00
2023-04-21T12:33:44.605Z,7.72
2023-04-21T12:35:16.903Z,8.10
2023-04-21T12:36:51.080Z,13.68
2023-04-21T12:38:23.386Z,8.75
2023-04-21T12:39:55.536Z,7.78
2023-04-21T12:41:27.688Z,8.80
2023-04-21T12:42:59.754Z,8.23
2023-04-21T12:44:32.121Z,10.48
2023-04-21T12:46:04.387Z,11.53
2023-04-21T12:47:38.019Z,8.60
2023-04-21T12:49:11.534Z,9.18
2023-04-21T12:50:43.736Z,8.85
2023-04-21T12:52:15.875Z,8.60
2023-04-21T12:53:48.021Z,8.73
2023-04-21T12:55:20.103Z,9.02
2023-04-21T12:56:52.234Z,7.30
2023-04-21T12:58:24.342Z,7.82
2023-04-21T12:59:56.465Z,12.50
2023-04-21T13:01:28.710Z,9.15
2023-04-21T13:03:01.584Z,9.25
2023-04-21T13:04:34.057Z,9.02
2023-04-21T13:06:06.868Z,8.68
2023-04-21T13:07:39.382Z,9.13
2023-04-21T13:09:11.892Z,10.10
2023-04-21T13:10:46.228Z,9.98
2023-04-21T13:12:18.383Z,8.95
2023-04-21T13:13:50.794Z,8.20
2023-04-21T13:15:22.986Z,8.77
2023-04-21T13:16:55.182Z,8.75
2023-04-21T13:18:27.523Z,8.60
2023-04-21T13:19:59.696Z,8.32
2023-04-21T13:21:33.135Z,8.52
2023-04-21T13:23:05.649Z,9.93
2023-04-21T13:24:37.895Z,9.00
2023-04-21T13:26:10.039Z,8.93
2023-04-21T13:27:42.413Z,7.72
2023-04-21T13:29:14.647Z,8.40
2023-04-21T13:30:47.019Z,9.43
2023-04-21T13:32:19.212Z,7.23
2023-04-21T13:33:53.015Z,9.00
2023-04-21T13:35:26.271Z,7.82
2023-04-21T13:36:58.388Z,7.73
2023-04-21T13:38:30.899Z,9.20
2023-04-21T13:40:03.317Z,7.85
2023-04-21T13:41:35.612Z,13.02
2023-04-21T13:44:46.795Z,9.02
2023-04-21T13:46:20.290Z,8.30
2023-04-21T13:47:52.664Z,9.50
2023-04-21T13:49:25.053Z,11.38
2023-04-21T13:50:57.256Z,13.10
2023-04-21T13:52:29.406Z,9.15
2023-04-21T13:54:01.621Z,7.53
2023-04-21T13:55:33.785Z,10.77
2023-04-21T13:57:06.091Z,11.15
2023-04-21T13:58:38.548Z,7.60
2023-04-21T14:00:13.914Z,7.40
2023-04-21T14:01:46.073Z,8.20
2023-04-21T14:03:18.445Z,8.93
2023-04-21T14:04:51.051Z,9.75
2023-04-21T14:06:23.428Z,10.70
2023-04-21T14:07:55.654Z,8.70
2023-04-21T14:09:27.758Z,9.52
2023-04-21T14:10:59.914Z,11.25
2023-04-21T14:12:32.237Z,10.00
2023-04-21T14:15:39.513Z,6.70
2023-04-21T14:17:11.946Z,8.80
2023-04-21T14:18:45.643Z,8.43
2023-04-21T14:20:17.801Z,8.82
2023-04-21T14:21:49.953Z,6.60
2023-04-21T14:23:22.135Z,7.90
2023-04-21T14:24:54.636Z,8.45
2023-04-21T14:26:26.855Z,9.60
2023-04-21T14:27:59.252Z,11.30
2023-04-21T14:29:31.670Z,9.93
2023-04-21T14:31:04.814Z,8.82
2023-04-21T14:32:37.221Z,9.45
2023-04-21T14:34:09.432Z,10.00
2023-04-21T14:35:42.515Z,8.25
2023-04-21T14:37:14.755Z,8.40
2023-04-21T14:38:47.053Z,8.32
2023-04-21T14:40:19.457Z,7.45
2023-04-21T14:41:52.240Z,7.63
2023-04-21T14:43:24.609Z,7.30
2023-04-21T14:44:56.711Z,9.02
2023-04-21T14:46:29.479Z,8.55
2023-04-21T14:48:01.790Z,9.07
2023-04-21T14:49:34.294Z,8.55
2023-04-21T14:51:09.754Z,8.75
2023-04-21T14:52:42.214Z,10.98
2023-04-21T14:54:14.340Z,8.75
2023-04-21T14:55:46.429Z,10.20
2023-04-21T14:57:21.084Z,8.25
2023-04-21T14:58:53.486Z,9.55
2023-04-21T15:00:26.278Z,9.43
2023-04-21T15:01:58.341Z,9.82
2023-04-21T15:03:30.608Z,11.57
2023-04-21T15:05:03.888Z,9.18
2023-04-21T15:08:09.340Z,8.88
2023-04-21T15:09:45.953Z,8.32
2023-04-21T15:11:18.164Z,7.93
2023-04-21T15:12:50.291Z,8.23
2023-04-21T15:14:22.749Z,7.18
2023-04-21T15:15:54.908Z,8.05
2023-04-21T15:17:27.215Z,8.50
2023-04-21T15:18:59.675Z,7.45
2023-04-21T15:20:43.971Z,9.83
2023-04-21T15:22:17.648Z,10.00
2023-04-21T15:23:49.748Z,12.27
2023-04-21T15:25:21.953Z,9.63
2023-04-21T15:26:54.082Z,9.48
2023-04-21T15:28:26.552Z,11.10
2023-04-21T15:29:58.800Z,9.32
2023-04-21T15:31:31.746Z,9.20
2023-04-21T15:33:04.046Z,9.00
2023-04-21T15:34:36.321Z,8.45
2023-04-21T15:36:08.597Z,8.85
2023-04-21T15:37:40.861Z,9.55
2023-04-21T15:39:16.031Z,11.52
2023-04-21T15:41:00.275Z,8.23
2023-04-21T15:42:33.190Z,8.07
2023-04-21T15:44:05.599Z,8.93
2023-04-21T15:45:37.911Z,7.45
2023-04-21T15:47:10.050Z,8.48
2023-04-21T15:48:42.904Z,9.90
2023-04-21T15:50:16.413Z,8.65
2023-04-21T15:51:48.481Z,8.40
2023-04-21T15:53:20.860Z,10.90
2023-04-21T15:54:53.061Z,8.17
2023-04-21T15:58:37.781Z,6.88
2023-04-21T16:00:13.170Z,9.03
2023-04-21T16:01:45.435Z,7.95
2023-04-21T16:03:18.573Z,7.35
2023-04-21T16:04:51.088Z,8.48
2023-04-21T16:06:24.543Z,7.50
2023-04-21T16:09:28.703Z,9.18
2023-04-21T16:11:01.423Z,8.57
2023-04-21T16:12:33.611Z,9.15
2023-04-21T16:14:06.319Z,9.40
2023-04-21T16:15:38.647Z,9.27
2023-04-21T16:17:11.127Z,8.93
2023-04-21T16:18:43.487Z,7.82
2023-04-21T16:20:16.087Z,8.45
2023-04-21T16:21:48.250Z,10.43
2023-04-21T16:23:20.431Z,9.85
2023-04-21T16:24:53.627Z,10.40
2023-04-21T16:27:57.879Z,9.30
2023-04-21T16:29:30.349Z,9.95
2023-04-21T16:31:05.720Z,8.40
2023-04-21T16:32:38.012Z,7.55
2023-04-21T16:34:10.360Z,9.32
2023-04-21T16:35:42.575Z,9.45
2023-04-21T16:37:14.901Z,8.38
2023-04-21T16:38:47.241Z,9.23
2023-04-21T16:40:19.427Z,9.02
2023-04-21T16:41:51.531Z,8.40
2023-04-21T16:43:26.820Z,10.07
2023-04-21T16:44:59.593Z,8.25
2023-04-21T16:46:31.860Z,8.32
2023-04-21T16:48:04.374Z,10.48
2023-04-21T16:49:36.673Z,9.35
2023-04-21T16:51:08.824Z,9.00
2023-04-21T16:52:41.066Z,7.72
2023-04-21T16:54:13.226Z,7.78
2023-04-21T16:55:45.328Z,8.10
2023-04-21T16:57:18.032Z,8.60
2023-04-21T16:58:50.311Z,8.93
2023-04-21T17:00:22.426Z,9.02
2023-04-21T17:01:54.653Z,8.43
2023-04-21T17:03:29.437Z,8.55
2023-04-21T17:05:01.796Z,9.48
2023-04-21T17:06:34.694Z,7.28
2023-04-21T17:08:06.919Z,8.20
2023-04-21T17:09:39.157Z,8.65
2023-04-21T17:11:11.345Z,7.53
2023-04-21T17:12:43.486Z,12.10
2023-04-21T17:14:15.665Z,8.10
2023-04-21T17:15:48.199Z,8.13
2023-04-21T17:17:20.434Z,9.05
2023-04-21T17:18:52.602Z,9.30
2023-04-21T17:20:24.803Z,18.25
2023-04-21T17:21:56.945Z,24.70
2023-04-21T17:23:29.133Z,10.38
2023-04-21T17:25:01.268Z,29.50
2023-04-21T17:26:33.448Z,18.35
2023-04-21T17:28:05.906Z,26.20
2023-04-21T17:29:38.006Z,12.07
2023-04-21T17:31:15.178Z,11.60
2023-04-21T17:32:48.195Z,8.20
2023-04-21T17:34:20.441Z,12.48
2023-04-21T17:36:02.554Z,17.70
2023-04-21T17:37:35.618Z,13.98
2023-04-21T17:39:08.740Z,17.33
2023-04-21T17:40:41.019Z,11.20
2023-04-21T17:42:13.170Z,14.95
2023-04-21T17:43:45.376Z,12.57
2023-04-21T17:45:17.827Z,12.80
2023-04-21T17:46:49.985Z,13.97
2023-04-21T17:48:22.341Z,11.93
2023-04-21T17:49:54.492Z,11.52
2023-04-21T17:51:26.640Z,12.07
2023-04-21T17:52:58.780Z,9.43
2023-04-21T17:54:31.212Z,9.30
2023-04-21T17:56:03.458Z,16.07
2023-04-21T17:57:35.650Z,21.60
2023-04-21T17:59:08.119Z,13.07
2023-04-21T18:00:40.274Z,14.30
2023-04-21T18:02:12.651Z,16.10
2023-04-21T18:03:45.033Z,12.57
2023-04-21T18:05:17.551Z,12.15
2023-04-21T18:06:50.964Z,11.45
2023-04-21T18:09:55.390Z,13.32
2023-04-21T18:11:27.821Z,15.85
2023-04-21T18:13:00.126Z,13.90
2023-04-21T18:14:32.267Z,22.60
2023-04-21T18:17:37.907Z,17.23
2023-04-21T18:19:10.055Z,12.82
2023-04-21T18:20:42.554Z,14.70
2023-04-21T18:22:14.788Z,13.50
2023-04-21T18:23:46.990Z,13.05
2023-04-21T18:25:30.679Z,11.43
2023-04-21T18:27:11.701Z,9.75
2023-04-21T18:28:43.912Z,10.98
2023-04-21T18:30:16.668Z,12.57
2023-04-21T18:31:49.013Z,11.55
2023-04-21T18:33:21.238Z,9.35
2023-04-21T18:34:53.769Z,10.45
2023-04-21T18:36:25.981Z,10.65
2023-04-21T18:37:58.140Z,9.75
2023-04-21T18:39:30.325Z,10.00
2023-04-21T18:41:02.899Z,10.70
2023-04-21T18:42:35.218Z,11.20
2023-04-21T18:44:07.337Z,9.55
2023-04-21T18:45:39.715Z,11.05
2023-04-21T18:47:12.547Z,9.57
2023-04-21T18:48:44.878Z,9.68
2023-04-21T18:50:17.122Z,9.05
2023-04-21T18:51:49.177Z,9.68
2023-04-21T18:53:21.234Z,9.88
2023-04-21T18:54:53.408Z,8.63
2023-04-21T18:56:25.672Z,10.48
2023-04-21T18:57:57.815Z,10.43
2023-04-21T18:59:30.415Z,8.35
2023-04-21T19:01:10.012Z,9.43
2023-04-21T19:02:42.586Z,9.98
2023-04-21T19:04:14.927Z,9.82
2023-04-21T19:05:47.610Z,9.43
2023-04-21T19:07:19.831Z,13.20
2023-04-21T19:08:53.178Z,11.07
2023-04-21T19:11:57.297Z,9.45
2023-04-21T19:13:29.637Z,12.00
2023-04-21T19:15:02.407Z,10.18
2023-04-21T19:16:34.551Z,10.10
2023-04-21T19:18:07.018Z,10.43
2023-04-21T19:19:39.263Z,10.10
2023-04-21T19:21:13.958Z,9.30
2023-04-21T19:22:46.183Z,10.23
2023-04-21T19:24:18.430Z,10.10
2023-04-21T19:25:54.922Z,8.60
2023-04-21T19:27:27.099Z,9.77
2023-04-21T19:28:59.236Z,10.32
2023-04-21T19:32:15.762Z,10.40
2023-04-21T19:33:49.935Z,10.40
2023-04-21T19:35:22.219Z,8.77
2023-04-21T19:36:54.350Z,9.52
2023-04-21T19:38:27.301Z,9.90
2023-04-21T19:39:59.441Z,12.63
2023-04-21T19:41:31.688Z,12.23
2023-04-21T19:43:05.111Z,10.60
2023-04-21T19:46:10.763Z,10.30
2023-04-21T19:47:42.932Z,9.18
2023-04-21T19:49:15.194Z,11.02
2023-04-21T19:50:47.551Z,11.45
2023-04-21T19:52:19.666Z,11.88
2023-04-21T19:54:03.217Z,10.82
2023-04-21T19:55:39.906Z,9.63
2023-04-21T19:57:12.032Z,9.10
2023-04-21T19:58:44.173Z,8.98
2023-04-21T20:00:17.008Z,9.35
2023-04-21T20:01:49.152Z,9.63
2023-04-21T20:03:22.043Z,10.43
2023-04-21T20:04:54.560Z,12.27
2023-04-21T20:06:27.729Z,11.57
2023-04-21T20:08:00.197Z,12.25
2023-04-21T20:09:32.284Z,9.73
2023-04-21T20:11:04.513Z,11.10
2023-04-21T20:12:36.988Z,13.88
2023-04-21T20:14:09.134Z,16.00
2023-04-21T20:15:41.360Z,12.02
2023-04-21T20:17:13.746Z,12.55
2023-04-21T20:18:46.033Z,13.77
2023-04-21T20:20:18.281Z,11.63
2023-04-21T20:21:50.599Z,12.15
2023-04-21T20:23:22.702Z,12.75
2023-04-21T20:24:58.515Z,11.90
2023-04-21T20:26:30.766Z,12.55
2023-04-21T20:28:02.879Z,11.95
2023-04-21T20:29:35.466Z,11.57
2023-04-21T20:31:10.434Z,12.07
2023-04-21T20:32:42.633Z,12.30
2023-04-21T20:34:14.760Z,13.38
2023-04-21T20:35:46.878Z,11.32
2023-04-21T20:37:19.904Z,12.15
2023-04-21T20:38:52.091Z,10.57
2023-04-21T20:40:24.794Z,11.73
2023-04-21T20:42:12.080Z,11.40
2023-04-21T20:43:45.864Z,10.40
2023-04-21T20:45:18.830Z,10.18